Guiping, China
Current Conditions -  °F | °C
As of 10:00 AM on Tuesday 25 Nov 2014 (Local Time) from ZGKL Reporting Station
Overcast Overcast  
Wind Chill: 57°   Ceiling: 5000
Heat Index: 57°   Visibility: 4mi
Dew Point: 48°   Wind: 7mph
Humidity: 72%   Direction: 60°ENE
Pressure: 30.12"   Gusts: NA
Location:  23.4°N, 110.08°E
Report Text: ZGKL 250200Z 06003MPS 7000 SCT020 OVC050 14/09 Q1020 NOSIG
Loading
Personal Weather Stations






























Interactive Weather Map New forecast layout! Learn more

10-Day Weather Forecast

Advertisements
Track Severe Weather on mobile